KHFD/HFD METAR and TAF weather

Enter ICAO airport designator
Station Type Date Time Source
KHFD METAR 2019/06/16 04:53 UTC NOAA

KHFD 160453Z AUTO 19007KT 10SM BKN070 21/13 A2991 RMK AO2 SLP127 T02060133 402670111


Station Type Date Time Source
KHFD Decoded METAR 2019/06/16 04:53 UTC NOAA

HARTFORD-BRAINARD AIRPORT, CT, United States (KHFD) 41-44N 072-39W 4M
Jun 16, 2019 - 12:53 AM EDT / 2019.06.16 0453 UTC
Wind: from the S (190 degrees) at 8 MPH (7 KT):0
Visibility: 10 mile(s):0
Sky conditions: mostly cloudy
Temperature: 69.1 F (20.6 C)
Dew Point: 55.9 F (13.3 C)
Relative Humidity: 62%
Pressure (altimeter): 29.91 in. Hg (1012 hPa)
ob: KHFD 160453Z AUTO 19007KT 10SM BKN070 21/13 A2991 RMK AO2 SLP127 T02060133 402670111
cycle: 5

Station Type Date Time Source
KHFD TAF UTC NOAA

Error!

Example: see airport list